Time;durP1;ratioP1;P1;durP2;ratioP2;P2;SDS_P1;SDS_P2;PMS_P1;PMS_P2;Temp;Humidity;BMP_temperature;BMP_pressure;BME280_temperature;BME280_humidity;BME280_pressure;Samples;Min_cycle;Max_cycle;Signal;HPM_P1;HPM_P2
2023/08/21 00:00:00;;;;;;;;;;;;;;;26.92;54.38;99626.06;347518;28;1540;-75
2023/08/21 00:00:13;;;;;;;;;;;;;;;26.92;54.52;99623.38;347544;28;891;-75
2023/08/21 00:00:23;;;;;;;;;;;;;;;26.91;54.40;99627.91;348894;28;951;-75
2023/08/21 00:00:33;;;;;;;;;;;;;;;26.91;54.73;99630.59;349035;28;842;-74
2023/08/21 00:00:43;;;;;;;;;;;;;;;26.92;54.57;99628.75;347588;28;936;-74
2023/08/21 00:00:53;;;;;;;;;;;;;;;26.91;54.64;99621.69;349394;28;1268;-74
2023/08/21 00:01:04;;;;;;;;;;;;;;;26.90;54.82;99620.84;350470;28;1158;-74
2023/08/21 00:01:14;;;;;;;;;;;;;;;26.91;54.62;99627.91;348914;28;1225;-74
2023/08/21 00:01:24;;;;;;;;;;;;;;;26.91;54.80;99621.69;348849;28;1361;-74
2023/08/21 00:01:34;;;;;;;;;;;;;;;26.93;54.44;99625.06;347509;28;1342;-74
2023/08/21 00:01:45;;;;;;;;;;;;;;;26.91;54.52;99619.84;347610;28;1371;-74
2023/08/21 00:01:55;;;;;;;;;;;;;;;26.90;54.63;99618.19;347445;28;1294;-74
2023/08/21 00:02:05;;;;;;;;;;;;;;;26.91;54.62;99624.38;348289;28;865;-74
2023/08/21 00:02:15;;;;;;;;;;;;;;;26.92;54.62;99620.69;347361;28;1571;-74
2023/08/21 00:02:27;;;;;;;;;;;;;;;26.91;54.59;99627.06;344832;28;1165;-74
2023/08/21 00:02:38;;;;;;;;;;;;;;;26.92;54.69;99628.75;343425;28;915;-74
2023/08/21 00:02:48;;;;;;;;;;;;;;;26.92;54.38;99624.22;344214;28;1047;-74
2023/08/21 00:02:58;;;;;;;;;;;;;;;26.92;54.56;99623.38;343711;28;864;-74
2023/08/21 00:03:08;;;;;;;;;;;;;;;26.92;54.39;99632.28;344619;28;1547;-74
2023/08/21 00:03:18;;;;;;;;;;;;;;;26.92;54.63;99624.22;345004;28;808;-74
2023/08/21 00:03:29;;;;;;;;;;;;;;;26.90;54.63;99628.91;344949;28;797;-74
2023/08/21 00:03:40;;;;;;;;;;;;;;;26.91;54.52;99621.69;342062;28;1435;-74
2023/08/21 00:03:50;;;;;;;;;;;;;;;26.90;54.59;99620.03;344816;28;860;-74
2023/08/21 00:04:00;;;;;;;;;;;;;;;26.90;54.74;99626.22;343936;28;2871;-74
2023/08/21 00:04:10;;;;;;;;;;;;;;;26.91;54.54;99629.75;343208;28;2747;-74
2023/08/21 00:04:20;;;;;;;;;;;;;;;26.91;54.71;99632.44;343360;28;4846;-74
2023/08/21 00:04:31;;;;;;;;;;;;;;;26.89;54.84;99629.09;343440;28;894;-74
2023/08/21 00:04:41;;;;;;;;;;;;;;;26.90;54.58;99630.75;343570;28;1305;-74
2023/08/21 00:04:51;;;;;;;;;;;;;;;26.89;54.63;99629.09;346280;28;1292;-75
2023/08/21 00:05:01;;;;;;;;;;;;;;;26.90;54.08;99630.75;346585;28;1246;-75
2023/08/21 00:05:12;;;;;;;;;;;;;;;26.88;54.76;99628.25;347448;28;1208;-75
2023/08/21 00:05:22;;;;;;;;;;;;;;;26.86;54.41;99629.44;344213;28;1219;-75
2023/08/21 00:05:32;;;;;;;;;;;;;;;26.86;54.48;99629.44;342419;28;769;-75
2023/08/21 00:05:42;;;;;;;;;;;;;;;26.86;54.65;99629.44;342264;28;813;-75
2023/08/21 00:05:52;;;;;;;;;;;;;;;26.86;54.46;99629.44;339829;28;1327;-75
2023/08/21 00:06:03;;;;;;;;;;;;;;;26.84;54.59;99622.41;343932;28;1239;-75
2023/08/21 00:06:13;;;;;;;;;;;;;;;26.84;54.42;99627.78;342037;28;1222;-75
2023/08/21 00:06:23;;;;;;;;;;;;;;;26.84;54.33;99630.44;342065;28;1295;-75
2023/08/21 00:06:33;;;;;;;;;;;;;;;26.84;54.29;99633.13;341504;28;1405;-75
2023/08/21 00:06:44;;;;;;;;;;;;;;;26.85;54.82;99631.28;343608;28;1232;-75
2023/08/21 00:06:54;;;;;;;;;;;;;;;26.84;54.51;99626.94;341644;28;1411;-75
2023/08/21 00:07:05;;;;;;;;;;;;;;;26.86;54.59;99634.81;336628;28;1482;-74
2023/08/21 00:07:15;;;;;;;;;;;;;;;26.86;54.37;99634.81;340680;28;1274;-74
2023/08/21 00:07:26;;;;;;;;;;;;;;;26.87;54.29;99631.09;340763;29;1541;-74
2023/08/21 00:07:36;;;;;;;;;;;;;;;26.86;54.63;99634.81;340723;28;1190;-74
2023/08/21 00:07:50;;;;;;;;;;;;;;;26.86;54.34;99632.13;340544;29;1328;-74
2023/08/21 00:08:01;;;;;;;;;;;;;;;26.87;54.34;99631.09;340699;28;1476;-74
2023/08/21 00:08:11;;;;;;;;;;;;;;;26.87;54.02;99628.41;342193;28;907;-74
2023/08/21 00:08:21;;;;;;;;;;;;;;;26.87;54.15;99637.31;340554;29;1710;-74
2023/08/21 00:08:31;;;;;;;;;;;;;;;26.87;53.99;99631.09;339343;28;1829;-74
2023/08/21 00:08:41;;;;;;;;;;;;;;;26.87;54.28;99636.47;338319;29;1325;-74
2023/08/21 00:08:52;;;;;;;;;;;;;;;26.87;54.08;99623.88;336326;29;2004;-74
2023/08/21 00:09:02;;;;;;;;;;;;;;;26.88;54.02;99630.09;337105;29;1993;-74
2023/08/21 00:09:12;;;;;;;;;;;;;;;26.89;54.07;99634.47;338134;29;1768;-74
2023/08/21 00:09:22;;;;;;;;;;;;;;;26.88;54.20;99628.25;337072;29;2124;-74
2023/08/21 00:09:33;;;;;;;;;;;;;;;26.89;54.32;99634.47;334976;29;1668;-74
2023/08/21 00:09:43;;;;;;;;;;;;;;;26.89;54.33;99634.47;334349;29;1216;-74
2023/08/21 00:09:53;;;;;;;;;;;;;;;26.89;54.05;99629.09;334324;29;1308;-74
2023/08/21 00:10:04;;;;;;;;;;;;;;;26.88;54.25;99628.25;331675;29;1248;-74
2023/08/21 00:10:15;;;;;;;;;;;;;;;26.88;54.29;99632.78;327917;29;1205;-74
2023/08/21 00:10:25;;;;;;;;;;;;;;;26.88;54.24;99627.41;325539;30;1903;-74
2023/08/21 00:10:37;;;;;;;;;;;;;;;26.87;54.29;99631.09;326524;30;2140;-74
2023/08/21 00:10:47;;;;;;;;;;;;;;;26.87;54.39;99628.41;327338;30;2403;-74
2023/08/21 00:10:58;;;;;;;;;;;;;;;26.86;54.18;99624.88;326869;30;1529;-75
2023/08/21 00:11:08;;;;;;;;;;;;;;;26.84;54.34;99630.44;325085;30;2432;-75
2023/08/21 00:11:18;;;;;;;;;;;;;;;26.84;54.09;99633.13;322158;30;2760;-75
2023/08/21 00:11:28;;;;;;;;;;;;;;;26.84;54.10;99625.09;321014;30;761;-74
2023/08/21 00:11:39;;;;;;;;;;;;;;;26.84;53.86;99633.13;319140;30;2724;-74
2023/08/21 00:11:49;;;;;;;;;;;;;;;26.86;54.19;99629.44;317799;31;1922;-74
2023/08/21 00:11:59;;;;;;;;;;;;;;;26.86;54.21;99626.75;318684;31;810;-74
2023/08/21 00:12:09;;;;;;;;;;;;;;;26.85;54.17;99633.97;317880;31;1393;-74
2023/08/21 00:12:19;;;;;;;;;;;;;;;26.86;54.15;99629.44;316095;30;2043;-74
2023/08/21 00:12:30;;;;;;;;;;;;;;;26.84;53.80;99630.44;315334;31;778;-74
2023/08/21 00:12:40;;;;;;;;;;;;;;;26.83;54.12;99625.25;314737;31;2552;-74
2023/08/21 00:12:50;;;;;;;;;;;;;;;26.82;54.21;99624.41;314135;31;2922;-74
2023/08/21 00:13:00;;;;;;;;;;;;;;;26.81;54.23;99632.63;314627;31;3526;-74
2023/08/21 00:13:11;;;;;;;;;;;;;;;26.81;54.03;99630.78;315412;31;2825;-74
2023/08/21 00:13:21;;;;;;;;;;;;;;;26.81;54.20;99636.16;309414;31;4473;-74
2023/08/21 00:13:31;;;;;;;;;;;;;;;26.81;54.31;99628.09;310529;31;3621;-75
2023/08/21 00:13:44;;;;;;;;;;;;;;;26.78;54.40;99628.44;313899;31;1153;-75
2023/08/21 00:13:54;;;;;;;;;;;;;;;26.77;54.45;99632.13;313569;31;3382;-75
2023/08/21 00:14:04;;;;;;;;;;;;;;;26.77;54.17;99632.13;314133;31;2478;-74
2023/08/21 00:14:15;;;;;;;;;;;;;;;26.76;54.48;99633.13;312854;31;1247;-74
2023/08/21 00:14:25;;;;;;;;;;;;;;;26.76;54.16;99635.81;311466;31;2218;-74
2023/08/21 00:14:35;;;;;;;;;;;;;;;26.75;54.41;99626.06;313077;31;3015;-74
2023/08/21 00:14:45;;;;;;;;;;;;;;;26.76;54.12;99633.13;314430;31;3642;-74
2023/08/21 00:14:56;;;;;;;;;;;;;;;26.75;54.16;99631.44;311866;31;1210;-74
2023/08/21 00:15:06;;;;;;;;;;;;;;;26.75;54.41;99634.13;308749;31;3886;-74
2023/08/21 00:15:16;;;;;;;;;;;;;;;26.75;54.24;99636.81;306273;32;4567;-74
2023/08/21 00:15:26;;;;;;;;;;;;;;;26.75;54.52;99633.28;303377;32;832;-74
2023/08/21 00:15:37;;;;;;;;;;;;;;;26.72;54.19;99634.47;305179;32;4630;-74
2023/08/21 00:15:48;;;;;;;;;;;;;;;26.72;54.28;99630.94;303990;32;4696;-74
2023/08/21 00:15:58;;;;;;;;;;;;;;;26.71;54.17;99631.94;304345;32;1216;-74
2023/08/21 00:16:08;;;;;;;;;;;;;;;26.70;54.31;99631.09;305265;32;4628;-74
2023/08/21 00:16:18;;;;;;;;;;;;;;;26.69;54.13;99637.47;307135;32;3502;-74
2023/08/21 00:16:29;;;;;;;;;;;;;;;26.71;54.40;99635.47;307483;32;855;-74
2023/08/21 00:16:39;;;;;;;;;;;;;;;26.71;54.48;99635.47;304654;32;3398;-74
2023/08/21 00:16:49;;;;;;;;;;;;;;;26.71;54.30;99638.16;304582;32;4348;-74
2023/08/21 00:16:59;;;;;;;;;;;;;;;26.71;54.29;99638.16;306426;32;1417;-74
2023/08/21 00:17:09;;;;;;;;;;;;;;;26.72;54.27;99639.84;305156;32;5340;-74
2023/08/21 00:17:20;;;;;;;;;;;;;;;26.72;54.27;99634.47;306184;32;5514;-74
2023/08/21 00:17:30;;;;;;;;;;;;;;;26.70;54.48;99641.84;308591;32;843;-74
2023/08/21 00:17:40;;;;;;;;;;;;;;;26.68;54.79;99633.13;306462;32;6161;-74
2023/08/21 00:17:50;;;;;;;;;;;;;;;26.70;54.45;99639.16;306266;32;6174;-74
2023/08/21 00:18:01;;;;;;;;;;;;;;;26.69;54.25;99629.41;304424;32;6144;-74
2023/08/21 00:18:11;;;;;;;;;;;;;;;26.69;54.38;99634.78;303058;32;1376;-74
2023/08/21 00:18:22;;;;;;;;;;;;;;;26.69;54.27;99633.94;300624;32;6424;-74
2023/08/21 00:18:32;;;;;;;;;;;;;;;26.67;54.38;99642.16;298919;32;4692;-74
2023/08/21 00:18:42;;;;;;;;;;;;;;;26.67;54.27;99634.13;297012;33;1354;-74
2023/08/21 00:18:53;;;;;;;;;;;;;;;26.67;54.31;99641.34;294270;33;5207;-74
2023/08/21 00:19:04;;;;;;;;;;;;;;;26.66;54.31;99639.66;293623;33;6094;-74
2023/08/21 00:19:14;;;;;;;;;;;;;;;26.63;54.46;99635.44;296021;33;881;-74
2023/08/21 00:19:24;;;;;;;;;;;;;;;26.61;54.32;99641.97;292895;33;7228;-74
2023/08/21 00:19:34;;;;;;;;;;;;;;;26.61;54.45;99637.47;291396;33;7822;-74
2023/08/21 00:19:44;;;;;;;;;;;;;;;26.62;54.65;99639.13;292209;33;887;-75
2023/08/21 00:19:55;;;;;;;;;;;;;;;26.60;54.57;99630.41;290621;33;8532;-75
2023/08/21 00:20:05;;;;;;;;;;;;;;;26.61;54.28;99637.47;288720;33;8181;-75
2023/08/21 00:20:19;;;;;;;;;;;;;;;26.59;54.65;99633.25;287475;34;7965;-75
2023/08/21 00:20:29;;;;;;;;;;;;;;;26.55;54.53;99638.09;286511;34;812;-75
2023/08/21 00:20:41;;;;;;;;;;;;;;;26.51;54.56;99642.13;284470;34;9449;-75
2023/08/21 00:20:51;;;;;;;;;;;;;;;26.49;54.57;99639.59;283103;34;6620;-75
2023/08/21 00:21:02;;;;;;;;;;;;;;;26.48;54.74;99637.09;281293;34;7582;-75
2023/08/21 00:21:12;;;;;;;;;;;;;;;26.48;55.05;99642.44;280930;35;818;-75
2023/08/21 00:22:52;;;;;;;;;;;;;;;26.57;54.36;99641.47;2489229;27;19926;-74
2023/08/21 00:23:03;;;;;;;;;;;;;;;26.58;54.60;99636.94;355803;27;3051;-75
2023/08/21 00:23:13;;;;;;;;;;;;;;;26.58;54.54;99637.78;351702;28;1222;-75
2023/08/21 00:23:23;;;;;;;;;;;;;;;26.57;54.40;99638.78;353041;28;951;-75
2023/08/21 00:23:33;;;;;;;;;;;;;;;26.56;54.63;99639.78;351182;28;1385;-75
2023/08/21 00:23:43;;;;;;;;;;;;;;;26.56;54.59;99642.47;350430;28;1023;-75
2023/08/21 00:23:55;;;;;;;;;;;;;;;26.56;54.68;99634.41;349021;28;1251;-75
2023/08/21 00:24:05;;;;;;;;;;;;;;;26.55;54.81;99637.28;348923;28;1581;-75
2023/08/21 00:24:15;;;;;;;;;;;;;;;26.52;54.72;99636.59;351641;28;1218;-75
2023/08/21 00:24:26;;;;;;;;;;;;;;;26.54;54.71;99639.13;352790;28;1366;-75
2023/08/21 00:24:36;;;;;;;;;;;;;;;26.55;54.76;99632.75;350373;28;1242;-75
2023/08/21 00:24:46;;;;;;;;;;;;;;;26.55;54.48;99640.78;348998;28;1315;-75
2023/08/21 00:24:56;;;;;;;;;;;;;;;26.57;54.45;99646.00;348897;28;1315;-75
2023/08/21 00:25:07;;;;;;;;;;;;;;;26.56;54.68;99634.41;348813;28;1347;-75
2023/08/21 00:25:17;;;;;;;;;;;;;;;26.57;54.78;99636.09;348132;28;1316;-75
2023/08/21 00:25:27;;;;;;;;;;;;;;;26.57;54.69;99630.72;349059;28;1671;-75
2023/08/21 00:25:38;;;;;;;;;;;;;;;26.57;54.33;99632.56;349010;28;925;-75
2023/08/21 00:25:48;;;;;;;;;;;;;;;26.57;54.40;99636.09;348996;28;800;-75
2023/08/21 00:25:58;;;;;;;;;;;;;;;26.56;54.39;99634.41;347539;28;1503;-75
2023/08/21 00:26:08;;;;;;;;;;;;;;;26.58;54.45;99642.31;346146;28;1400;-75
2023/08/21 00:26:18;;;;;;;;;;;;;;;26.56;54.47;99645.16;346262;28;846;-75
2023/08/21 00:26:29;;;;;;;;;;;;;;;26.56;54.35;99634.41;347393;28;1228;-75
2023/08/21 00:26:39;;;;;;;;;;;;;;;26.57;54.50;99635.25;347652;28;1045;-75
2023/08/21 00:26:49;;;;;;;;;;;;;;;26.57;54.61;99641.47;348578;28;1200;-75
2023/08/21 00:26:59;;;;;;;;;;;;;;;26.57;54.68;99635.25;348762;28;1161;-75
2023/08/21 00:27:09;;;;;;;;;;;;;;;26.54;54.72;99640.97;348914;28;780;-76
2023/08/21 00:27:20;;;;;;;;;;;;;;;26.54;54.48;99644.47;349000;28;868;-76
2023/08/21 00:27:30;;;;;;;;;;;;;;;26.53;54.48;99640.13;347413;28;1310;-76
2023/08/21 00:27:40;;;;;;;;;;;;;;;26.53;54.54;99642.81;349222;28;890;-76
2023/08/21 00:27:50;;;;;;;;;;;;;;;26.52;54.66;99639.28;348899;28;1311;-75
2023/08/21 00:28:01;;;;;;;;;;;;;;;26.53;54.49;99637.44;349082;28;1021;-75
2023/08/21 00:28:12;;;;;;;;;;;;;;;26.53;54.52;99640.13;348835;28;1244;-75
2023/08/21 00:28:22;;;;;;;;;;;;;;;26.53;54.22;99645.50;349085;28;777;-75
2023/08/21 00:28:33;;;;;;;;;;;;;;;26.52;54.21;99643.81;347515;28;853;-75
2023/08/21 00:28:43;;;;;;;;;;;;;;;26.51;54.11;99636.75;346129;28;1437;-75
2023/08/21 00:28:53;;;;;;;;;;;;;;;26.53;54.47;99634.75;347564;28;1185;-75
2023/08/21 00:29:04;;;;;;;;;;;;;;;26.52;54.06;99638.44;347515;28;1029;-75
2023/08/21 00:29:14;;;;;;;;;;;;;;;26.51;54.30;99651.03;345797;28;1408;-75
2023/08/21 00:29:24;;;;;;;;;;;;;;;26.50;54.15;99635.91;346243;28;1385;-75
2023/08/21 00:29:35;;;;;;;;;;;;;;;26.49;54.14;99644.97;347204;28;1064;-75
2023/08/21 00:29:45;;;;;;;;;;;;;;;26.52;54.06;99641.13;345244;28;1209;-75
2023/08/21 00:29:55;;;;;;;;;;;;;;;26.51;54.16;99642.13;347697;28;982;-75
2023/08/21 00:30:05;;;;;;;;;;;;;;;26.51;54.13;99642.97;346173;28;1289;-75
2023/08/21 00:30:16;;;;;;;;;;;;;;;26.48;54.19;99642.44;347229;28;1098;-75
2023/08/21 00:30:26;;;;;;;;;;;;;;;26.47;54.24;99646.13;345797;28;1589;-75
2023/08/21 00:30:36;;;;;;;;;;;;;;;26.47;54.37;99643.47;350200;28;1209;-75
2023/08/21 00:30:46;;;;;;;;;;;;;;;26.46;54.19;99644.47;346602;28;1202;-75
2023/08/21 00:31:00;;;;;;;;;;;;;;;26.44;54.23;99647.31;344620;28;1542;-75
2023/08/21 00:31:10;;;;;;;;;;;;;;;26.44;54.36;99643.78;347691;28;832;-75
2023/08/21 00:31:21;;;;;;;;;;;;;;;26.44;54.29;99643.78;350026;28;1222;-75
2023/08/21 00:31:31;;;;;;;;;;;;;;;26.42;54.62;99643.13;350128;28;1571;-75
2023/08/21 00:31:41;;;;;;;;;;;;;;;26.39;54.58;99654.19;346760;28;2879;-75
2023/08/21 00:31:51;;;;;;;;;;;;;;;26.36;54.58;99647.31;346247;28;3390;-75
2023/08/21 00:32:02;;;;;;;;;;;;;;;26.34;54.75;99646.63;345400;28;2553;-75
2023/08/21 00:32:12;;;;;;;;;;;;;;;26.35;54.80;99647.47;343395;28;1090;-75
2023/08/21 00:32:22;;;;;;;;;;;;;;;26.34;55.00;99652.00;342071;28;3276;-75
2023/08/21 00:32:32;;;;;;;;;;;;;;;26.34;54.99;99646.63;346773;28;1213;-75
2023/08/21 00:32:43;;;;;;;;;;;;;;;26.34;54.71;99646.63;345893;28;1445;-75
2023/08/21 00:32:53;;;;;;;;;;;;;;;26.35;54.96;99650.16;346269;28;1505;-75
2023/08/21 00:33:03;;;;;;;;;;;;;;;26.35;54.97;99648.31;344138;28;1696;-75
2023/08/21 00:33:13;;;;;;;;;;;;;;;26.35;54.64;99652.84;340631;28;1742;-75
2023/08/21 00:33:24;;;;;;;;;;;;;;;26.36;54.76;99646.47;340958;29;877;-75
2023/08/21 00:33:34;;;;;;;;;;;;;;;26.35;54.86;99642.94;343422;28;1885;-75
2023/08/21 00:33:44;;;;;;;;;;;;;;;26.36;54.65;99643.78;344427;28;2336;-75
2023/08/21 00:33:54;;;;;;;;;;;;;;;26.36;54.81;99646.47;344846;28;773;-75
2023/08/21 00:34:05;;;;;;;;;;;;;;;26.34;54.72;99641.25;343667;28;1522;-75
2023/08/21 00:34:15;;;;;;;;;;;;;;;26.36;54.82;99643.78;341064;28;1217;-75
2023/08/21 00:34:25;;;;;;;;;;;;;;;26.37;54.56;99645.47;342286;28;995;-75
2023/08/21 00:34:35;;;;;;;;;;;;;;;26.38;54.61;99647.16;342006;28;909;-75
2023/08/21 00:34:45;;;;;;;;;;;;;;;26.38;54.87;99647.16;337449;29;1772;-74
2023/08/21 00:34:56;;;;;;;;;;;;;;;26.38;54.57;99645.31;336919;29;1230;-76
2023/08/21 00:35:06;;;;;;;;;;;;;;;26.38;54.68;99644.47;337651;28;2211;-76
2023/08/21 00:35:16;;;;;;;;;;;;;;;26.39;54.49;99646.16;334079;28;2228;-75
2023/08/21 00:35:26;;;;;;;;;;;;;;;26.39;54.82;99649.66;333942;29;2398;-75
2023/08/21 00:35:37;;;;;;;;;;;;;;;26.37;54.79;99646.31;335705;29;964;-75
2023/08/21 00:35:47;;;;;;;;;;;;;;;26.36;54.54;99643.78;338134;29;2405;-75
2023/08/21 00:35:57;;;;;;;;;;;;;;;26.34;54.91;99643.09;339595;29;2818;-74
2023/08/21 00:36:07;;;;;;;;;;;;;;;26.35;54.64;99647.47;332936;29;1289;-74
2023/08/21 00:36:19;;;;;;;;;;;;;;;26.34;54.57;99645.78;330409;29;1852;-75
2023/08/21 00:36:29;;;;;;;;;;;;;;;26.34;54.70;99645.78;330759;29;903;-75
2023/08/21 00:36:40;;;;;;;;;;;;;;;26.35;54.81;99647.47;329378;30;1290;-75
2023/08/21 00:36:50;;;;;;;;;;;;;;;26.36;54.64;99649.16;332694;29;1910;-75
2023/08/21 00:37:00;;;;;;;;;;;;;;;26.36;54.67;99644.63;334103;29;2466;-75
2023/08/21 00:37:11;;;;;;;;;;;;;;;26.37;54.63;99648.16;334220;29;1212;-75
2023/08/21 00:37:21;;;;;;;;;;;;;;;26.37;54.61;99650.84;328922;29;2796;-75
2023/08/21 00:37:31;;;;;;;;;;;;;;;26.38;54.70;99644.47;329213;29;3214;-75
2023/08/21 00:37:41;;;;;;;;;;;;;;;26.37;54.52;99642.78;330873;29;2764;-75
2023/08/21 00:37:52;;;;;;;;;;;;;;;26.37;54.76;99649.00;329433;30;1192;-75
2023/08/21 00:38:02;;;;;;;;;;;;;;;26.38;54.71;99647.16;325043;30;3257;-75
2023/08/21 00:38:12;;;;;;;;;;;;;;;26.37;54.73;99640.09;320556;30;3314;-75
2023/08/21 00:38:23;;;;;;;;;;;;;;;26.36;54.58;99644.63;323428;30;876;-75
2023/08/21 00:38:34;;;;;;;;;;;;;;;26.37;54.78;99650.84;323560;30;2966;-75
2023/08/21 00:38:44;;;;;;;;;;;;;;;26.37;54.67;99643.63;322055;30;1854;-75
2023/08/21 00:38:54;;;;;;;;;;;;;;;26.37;54.76;99646.31;323244;30;1220;-76
2023/08/21 00:39:04;;;;;;;;;;;;;;;26.36;54.85;99644.63;321212;30;2655;-75
2023/08/21 00:39:15;;;;;;;;;;;;;;;26.37;54.62;99645.47;321675;30;3743;-75
2023/08/21 00:39:25;;;;;;;;;;;;;;;26.37;54.51;99650.84;320136;30;1348;-75
2023/08/21 00:39:35;;;;;;;;;;;;;;;26.35;54.36;99642.09;317781;31;4150;-75
2023/08/21 00:39:45;;;;;;;;;;;;;;;26.35;54.39;99650.16;314435;31;4928;-75
2023/08/21 00:39:55;;;;;;;;;;;;;;;26.33;54.51;99644.09;314251;31;1104;-74
2023/08/21 00:40:06;;;;;;;;;;;;;;;26.32;54.38;99645.94;319860;30;4605;-75
2023/08/21 00:40:16;;;;;;;;;;;;;;;26.31;54.38;99644.28;317241;31;4026;-75
2023/08/21 00:40:26;;;;;;;;;;;;;;;26.32;54.39;99645.09;316745;31;4104;-75
2023/08/21 00:40:37;;;;;;;;;;;;;;;26.30;54.26;99645.25;317558;31;861;-75
2023/08/21 00:40:47;;;;;;;;;;;;;;;26.30;54.27;99647.09;317274;31;3274;-75
2023/08/21 00:40:57;;;;;;;;;;;;;;;26.30;54.61;99644.41;317795;31;2967;-75
2023/08/21 00:41:07;;;;;;;;;;;;;;;26.29;54.15;99645.41;316190;31;1432;-74
2023/08/21 00:41:18;;;;;;;;;;;;;;;26.29;54.21;99643.56;313539;31;3566;-76
2023/08/21 00:41:28;;;;;;;;;;;;;;;26.28;54.19;99643.72;311113;31;4725;-75
2023/08/21 00:41:38;;;;;;;;;;;;;;;26.27;54.13;99650.09;307845;31;4409;-74
2023/08/21 00:41:48;;;;;;;;;;;;;;;26.28;54.17;99646.41;306876;31;5976;-74
2023/08/21 00:41:58;;;;;;;;;;;;;;;26.28;54.10;99646.41;305862;31;6609;-75
2023/08/21 00:42:09;;;;;;;;;;;;;;;26.29;54.15;99640.03;309586;31;3143;-76
2023/08/21 00:42:19;;;;;;;;;;;;;;;26.29;54.15;99646.25;308890;31;6771;-76
2023/08/21 00:42:29;;;;;;;;;;;;;;;26.29;53.88;99643.56;305989;32;5663;-75
2023/08/21 00:42:39;;;;;;;;;;;;;;;26.28;54.15;99647.25;304271;32;1203;-75
2023/08/21 00:42:49;;;;;;;;;;;;;;;26.29;54.07;99648.09;298530;32;6008;-73
2023/08/21 00:43:00;;;;;;;;;;;;;;;26.28;53.92;99641.03;298972;32;4958;-75
2023/08/21 00:43:10;;;;;;;;;;;;;;;26.28;54.19;99641.88;301059;32;876;-74
2023/08/21 00:43:20;;;;;;;;;;;;;;;26.27;54.03;99642.88;301709;32;5130;-75
2023/08/21 00:43:31;;;;;;;;;;;;;;;26.26;54.06;99643.03;297861;32;6612;-75
2023/08/21 00:43:41;;;;;;;;;;;;;;;26.23;53.81;99641.53;295956;33;1256;-75
2023/08/21 00:43:51;;;;;;;;;;;;;;;26.23;53.90;99644.19;296670;33;7050;-75
2023/08/21 00:44:01;;;;;;;;;;;;;;;26.22;54.18;99642.53;297128;32;8596;-75
2023/08/21 00:44:12;;;;;;;;;;;;;;;26.22;53.95;99641.69;298587;32;9003;-74
2023/08/21 00:44:22;;;;;;;;;;;;;;;26.21;54.07;99645.38;298107;33;1251;-75
2023/08/21 00:44:32;;;;;;;;;;;;;;;26.21;53.91;99640.00;293646;33;10792;-75
2023/08/21 00:44:42;;;;;;;;;;;;;;;26.22;53.71;99641.69;292738;33;8194;-77
2023/08/21 00:44:53;;;;;;;;;;;;;;;26.21;53.76;99634.63;293227;33;949;-75
2023/08/21 00:46:34;;;;;;;;;;;;;;;26.21;53.82;99640.00;2502953;27;19932;-76
2023/08/21 00:46:44;;;;;;;;;;;;;;;26.20;53.41;99641.84;354511;27;2104;-76
2023/08/21 00:46:54;;;;;;;;;;;;;;;26.21;53.48;99640.00;351691;28;1246;-75
2023/08/21 00:47:04;;;;;;;;;;;;;;;26.19;53.70;99642.84;350305;28;1125;-75
2023/08/21 00:47:14;;;;;;;;;;;;;;;26.21;53.74;99640.00;350386;28;863;-75
2023/08/21 00:47:25;;;;;;;;;;;;;;;26.19;53.66;99643.69;349008;28;1300;-75
2023/08/21 00:47:35;;;;;;;;;;;;;;;26.21;53.79;99640.00;350353;28;1289;-75
2023/08/21 00:47:45;;;;;;;;;;;;;;;26.18;54.00;99636.63;350255;28;1198;-75
2023/08/21 00:47:55;;;;;;;;;;;;;;;26.18;53.45;99631.28;349877;28;1190;-75
2023/08/21 00:48:06;;;;;;;;;;;;;;;26.18;53.62;99639.31;350288;28;1240;-74
2023/08/21 00:48:16;;;;;;;;;;;;;;;26.20;53.43;99639.16;349039;28;1307;-76
2023/08/21 00:48:27;;;;;;;;;;;;;;;26.19;53.68;99643.69;348580;28;1218;-75
2023/08/21 00:48:37;;;;;;;;;;;;;;;26.19;53.66;99638.31;350441;28;845;-75
2023/08/21 00:48:47;;;;;;;;;;;;;;;26.18;53.32;99642.00;351585;28;1211;-75
2023/08/21 00:48:57;;;;;;;;;;;;;;;26.18;53.48;99641.16;351840;28;1133;-75
2023/08/21 00:49:08;;;;;;;;;;;;;;;26.18;53.34;99636.63;350328;28;1133;-75
2023/08/21 00:49:19;;;;;;;;;;;;;;;26.17;53.35;99634.94;350449;28;911;-75
2023/08/21 00:49:30;;;;;;;;;;;;;;;26.17;53.59;99634.94;348521;28;1346;-75
2023/08/21 00:49:40;;;;;;;;;;;;;;;26.16;53.45;99638.63;350172;28;2234;-75
2023/08/21 00:49:50;;;;;;;;;;;;;;;26.17;53.60;99645.69;350704;28;1521;-75
2023/08/21 00:50:01;;;;;;;;;;;;;;;26.16;53.79;99637.81;350127;28;859;-75
2023/08/21 00:50:11;;;;;;;;;;;;;;;26.16;53.47;99638.63;348723;28;1725;-75
2023/08/21 00:50:22;;;;;;;;;;;;;;;26.15;53.43;99642.31;350338;28;999;-75
2023/08/21 00:50:32;;;;;;;;;;;;;;;26.16;53.50;99638.63;350492;28;1187;-75
2023/08/21 00:50:42;;;;;;;;;;;;;;;26.17;53.34;99640.31;348996;28;2122;-75
2023/08/21 00:50:52;;;;;;;;;;;;;;;26.13;53.46;99636.28;348481;28;4293;-75
2023/08/21 00:51:03;;;;;;;;;;;;;;;26.10;53.33;99647.34;350050;28;4941;-75
2023/08/21 00:51:14;;;;;;;;;;;;;;;26.07;53.37;99638.75;350070;28;1295;-75
2023/08/21 00:51:24;;;;;;;;;;;;;;;26.07;53.56;99639.59;348828;28;4951;-75
2023/08/21 00:51:34;;;;;;;;;;;;;;;26.07;53.37;99636.91;347613;28;1230;-75
2023/08/21 00:51:44;;;;;;;;;;;;;;;26.07;53.34;99633.41;346304;28;860;-75
2023/08/21 00:51:55;;;;;;;;;;;;;;;26.06;53.38;99643.28;347385;28;860;-75
2023/08/21 00:52:06;;;;;;;;;;;;;;;26.07;53.36;99642.28;344908;28;1195;-75
2023/08/21 00:52:16;;;;;;;;;;;;;;;26.08;53.46;99635.91;345969;28;1045;-75
2023/08/21 00:52:26;;;;;;;;;;;;;;;26.08;53.63;99643.13;346705;28;1231;-75
2023/08/21 00:52:38;;;;;;;;;;;;;;;26.09;53.44;99642.13;347562;28;1133;-75
2023/08/21 00:52:48;;;;;;;;;;;;;;;26.10;53.19;99644.66;346212;28;1277;-75
2023/08/21 00:52:58;;;;;;;;;;;;;;;26.10;53.29;99639.28;347543;28;1372;-75
2023/08/21 00:53:09;;;;;;;;;;;;;;;26.11;53.30;99642.81;348844;28;1130;-75
2023/08/21 00:53:19;;;;;;;;;;;;;;;26.11;53.11;99635.59;347540;28;1235;-75
2023/08/21 00:53:29;;;;;;;;;;;;;;;26.09;53.22;99634.91;346214;28;947;-75
2023/08/21 00:53:39;;;;;;;;;;;;;;;26.09;53.24;99637.59;346298;28;896;-75
2023/08/21 00:53:49;;;;;;;;;;;;;;;26.09;53.10;99636.75;342188;28;1213;-75
2023/08/21 00:54:00;;;;;;;;;;;;;;;26.09;53.37;99647.50;340944;29;1031;-75
2023/08/21 00:54:10;;;;;;;;;;;;;;;26.08;53.12;99648.50;341943;28;880;-75
2023/08/21 00:54:20;;;;;;;;;;;;;;;26.08;53.46;99646.66;342159;28;932;-75
2023/08/21 00:54:31;;;;;;;;;;;;;;;26.07;52.85;99650.34;342840;28;1332;-75
2023/08/21 00:54:41;;;;;;;;;;;;;;;26.08;53.24;99648.50;342963;28;1436;-75
2023/08/21 00:54:51;;;;;;;;;;;;;;;26.07;53.35;99639.59;345012;28;794;-75
2023/08/21 00:55:03;;;;;;;;;;;;;;;26.07;53.49;99647.66;340574;28;1300;-75
2023/08/21 00:55:13;;;;;;;;;;;;;;;26.08;53.44;99651.19;339820;28;1319;-75
2023/08/21 00:55:23;;;;;;;;;;;;;;;26.09;53.36;99642.97;336889;29;1919;-75
2023/08/21 00:55:34;;;;;;;;;;;;;;;26.10;53.19;99641.97;338342;29;884;-75
2023/08/21 00:55:44;;;;;;;;;;;;;;;26.11;53.20;99635.59;337754;29;990;-75
2023/08/21 00:55:54;;;;;;;;;;;;;;;26.12;53.42;99647.16;337488;29;1105;-75
2023/08/21 00:56:04;;;;;;;;;;;;;;;26.10;53.18;99652.69;337009;29;865;-75
2023/08/21 00:56:15;;;;;;;;;;;;;;;26.09;53.36;99650.19;336665;29;1021;-75
2023/08/21 00:56:25;;;;;;;;;;;;;;;26.10;53.51;99638.44;336599;29;1608;-75
2023/08/21 00:56:35;;;;;;;;;;;;;;;26.09;53.08;99637.59;334379;29;831;-75
2023/08/21 00:56:45;;;;;;;;;;;;;;;26.10;53.51;99643.81;331786;29;1733;-75
2023/08/21 00:56:56;;;;;;;;;;;;;;;26.09;53.20;99644.81;333015;29;1848;-75
2023/08/21 00:57:06;;;;;;;;;;;;;;;26.07;53.52;99639.59;335586;29;817;-75
2023/08/21 00:57:16;;;;;;;;;;;;;;;26.07;53.55;99639.59;333985;29;1396;-75
2023/08/21 00:57:26;;;;;;;;;;;;;;;26.05;53.44;99640.75;334849;29;1670;-75
2023/08/21 00:57:36;;;;;;;;;;;;;;;26.04;53.49;99645.28;335581;29;1249;-75
2023/08/21 00:57:47;;;;;;;;;;;;;;;26.03;53.57;99632.88;336521;29;1666;-75
2023/08/21 00:57:57;;;;;;;;;;;;;;;26.03;53.67;99642.75;336073;29;1273;-75
2023/08/21 00:58:08;;;;;;;;;;;;;;;25.98;53.65;99643.28;336751;29;1395;-75
2023/08/21 00:58:19;;;;;;;;;;;;;;;25.94;53.79;99639.22;333140;29;847;-75
2023/08/21 00:58:29;;;;;;;;;;;;;;;25.95;53.81;99640.06;332275;29;1836;-75